Time;durP1;ratioP1;P1;durP2;ratioP2;P2;SDS_P1;SDS_P2;PMS_P1;PMS_P2;Temp;Humidity;BMP_temperature;BMP_pressure;BME280_temperature;BME280_humidity;BME280_pressure;Samples;Min_cycle;Max_cycle;Signal;HPM_P1;HPM_P2
2022/07/06 00:07:57;;;;;;;6.50;1.60;;;15.90;99.90;;;;;;20938553;28;20033;-79
2022/07/06 00:17:58;;;;;;;5.10;2.00;;;15.60;99.90;;;;;;20937265;28;20111;-78
2022/07/06 00:27:59;;;;;;;2.70;1.70;;;15.30;99.90;;;;;;20938280;28;20036;-77
2022/07/06 00:38:00;;;;;;;5.00;2.37;;;15.30;99.90;;;;;;20959932;28;20033;-78
2022/07/06 00:48:01;;;;;;;4.70;1.63;;;15.10;99.90;;;;;;20939028;28;20032;-76
2022/07/06 00:58:05;;;;;;;5.07;2.05;;;14.90;99.90;;;;;;20946724;28;20295;-79
2022/07/06 01:08:05;;;;;;;6.22;2.13;;;14.60;99.90;;;;;;20953669;28;20116;-79
2022/07/06 01:18:09;;;;;;;7.20;2.43;;;14.50;99.90;;;;;;20951324;28;20033;-79
2022/07/06 01:28:10;;;;;;;10.15;2.72;;;14.70;99.90;;;;;;20943895;28;20119;-78
2022/07/06 01:38:10;;;;;;;5.37;3.00;;;14.90;99.90;;;;;;20938871;28;20044;-78
2022/07/06 01:48:11;;;;;;;10.87;3.20;;;15.00;99.90;;;;;;20947239;28;20125;-79
2022/07/06 01:58:12;;;;;;;4.97;3.17;;;14.70;99.90;;;;;;20932298;28;20067;-78
2022/07/06 02:08:13;;;;;;;6.70;4.23;;;14.70;99.90;;;;;;20938484;28;20096;-78
2022/07/06 02:18:14;;;;;;;4.73;3.33;;;14.50;99.90;;;;;;20942014;28;20032;-79
2022/07/06 02:28:15;;;;;;;6.90;2.43;;;14.40;99.90;;;;;;20934847;28;20035;-78
2022/07/06 02:38:16;;;;;;;4.33;2.57;;;14.10;99.90;;;;;;20931788;28;20032;-79
2022/07/06 02:48:19;;;;;;;4.23;2.47;;;13.90;99.90;;;;;;20928499;28;20116;-79
2022/07/06 02:58:20;;;;;;;5.68;2.45;;;13.90;99.90;;;;;;20958327;28;20096;-79
2022/07/06 03:08:21;;;;;;;4.43;2.37;;;13.90;99.90;;;;;;20940867;28;20039;-79
2022/07/06 03:18:23;;;;;;;4.22;2.50;;;13.80;99.90;;;;;;20940804;28;20154;-79
2022/07/06 03:28:25;;;;;;;2.33;2.05;;;13.50;99.90;;;;;;20920148;28;20036;-79
2022/07/06 03:38:26;;;;;;;2.73;2.00;;;13.40;99.90;;;;;;20931613;28;20033;-79
2022/07/06 03:48:27;;;;;;;6.90;2.13;;;13.50;99.90;;;;;;20950008;28;20056;-79
2022/07/06 03:58:28;;;;;;;4.22;2.40;;;13.10;99.90;;;;;;20917962;28;20041;-79
2022/07/06 04:08:29;;;;;;;3.10;2.40;;;13.00;99.90;;;;;;20941794;28;20457;-78
2022/07/06 04:18:33;;;;;;;4.53;1.80;;;12.90;99.90;;;;;;20937542;28;20064;-79
2022/07/06 04:28:34;;;;;;;;;;;13.00;99.90;;;;;;20925729;28;20137;-79
2022/07/06 04:38:35;;;;;;;3.00;2.22;;;13.20;99.90;;;;;;20943532;28;19935;-79
2022/07/06 04:48:40;;;;;;;3.15;2.08;;;13.60;99.90;;;;;;20939373;28;20033;-78
2022/07/06 04:58:44;;;;;;;5.07;2.72;;;13.80;99.90;;;;;;20940276;28;20037;-77
2022/07/06 05:08:48;;;;;;;7.43;2.30;;;14.30;99.90;;;;;;20933184;28;20500;-77
2022/07/06 05:18:49;;;;;;;;;;;14.60;99.90;;;;;;20929881;28;20037;-77
2022/07/06 05:28:51;;;;;;;3.33;1.80;;;14.90;99.90;;;;;;20887380;23;19921;-76
2022/07/06 05:38:55;;;;;;;5.70;2.55;;;15.40;99.90;;;;;;20778254;28;20378;-76
2022/07/06 05:59:16;;;;;;;3.92;2.70;;;16.10;99.90;;;;;;20830422;28;20025;-76
2022/07/06 06:09:18;;;;;;;;;;;16.10;99.90;;;;;;20828954;28;20030;-76
2022/07/06 06:19:19;;;;;;;4.88;2.40;;;16.60;99.90;;;;;;20826991;28;19996;-76
2022/07/06 06:29:20;;;;;;;4.67;2.37;;;16.90;99.90;;;;;;20828986;28;20423;-76
2022/07/06 06:39:20;;;;;;;3.80;1.93;;;17.30;99.90;;;;;;20827437;28;20482;-76
2022/07/06 06:49:21;;;;;;;4.57;1.80;;;18.20;99.90;;;;;;20826388;28;20029;-76
2022/07/06 06:59:22;;;;;;;3.00;1.60;;;18.50;99.90;;;;;;20826342;28;20037;-76
2022/07/06 07:09:23;;;;;;;7.87;1.80;;;18.70;99.90;;;;;;20829152;28;20515;-76
2022/07/06 07:19:24;;;;;;;4.83;1.97;;;18.60;99.90;;;;;;20825800;28;20095;-76
2022/07/06 07:29:25;;;;;;;6.70;1.80;;;18.40;99.90;;;;;;20824862;28;20038;-76
2022/07/06 07:39:26;;;;;;;9.70;2.20;;;19.40;99.90;;;;;;20836322;28;20497;-76
2022/07/06 07:49:27;;;;;;;4.13;2.20;;;19.70;99.90;;;;;;20841035;28;20210;-76
2022/07/06 07:59:28;;;;;;;3.87;2.07;;;19.80;99.90;;;;;;20838859;28;20036;-76
2022/07/06 08:09:28;;;;;;;10.57;2.33;;;20.70;99.90;;;;;;20838294;28;20033;-76
2022/07/06 08:19:30;;;;;;;3.40;1.83;;;20.30;99.90;;;;;;20838925;28;20030;-76
2022/07/06 08:29:31;;;;;;;4.55;1.58;;;20.50;99.90;;;;;;20836257;28;20041;-75
2022/07/06 08:39:32;;;;;;;3.93;1.60;;;21.90;99.90;;;;;;20836952;28;20508;-75
2022/07/06 08:49:35;;;;;;;5.40;2.28;;;21.20;99.90;;;;;;20836162;28;20029;-75
2022/07/06 08:59:38;;;;;;;8.40;1.85;;;21.60;99.90;;;;;;20835433;28;20104;-76
2022/07/06 09:09:41;;;;;;;4.72;1.83;;;22.50;99.90;;;;;;20833767;28;20480;-75
2022/07/06 09:19:44;;;;;;;4.88;1.60;;;22.90;99.90;;;;;;20840381;28;20533;-75
2022/07/06 09:29:45;;;;;;;7.13;1.80;;;22.70;99.90;;;;;;20833609;28;20041;-75
2022/07/06 09:39:46;;;;;;;5.20;2.03;;;23.20;99.90;;;;;;20832669;28;20021;-75
2022/07/06 09:49:50;;;;;;;2.93;1.70;;;23.60;99.90;;;;;;20830349;28;20064;-75
2022/07/06 09:59:52;;;;;;;6.65;3.42;;;23.70;99.90;;;;;;20829010;28;20037;-75
2022/07/06 10:09:52;;;;;;;4.72;2.30;;;23.60;99.90;;;;;;20828840;28;20393;-75
2022/07/06 10:19:55;;;;;;;4.65;2.05;;;24.30;99.90;;;;;;20829201;28;20025;-75
2022/07/06 10:29:56;;;;;;;4.65;2.13;;;24.50;99.90;;;;;;20828241;28;20524;-75
2022/07/06 10:50:18;;;;;;;4.78;1.95;;;25.20;99.90;;;;;;20827001;28;20029;-76
2022/07/06 11:00:19;;;;;;;9.43;2.15;;;25.40;99.90;;;;;;20825062;28;20033;-76
2022/07/06 11:10:22;;;;;;;3.88;1.48;;;25.80;99.90;;;;;;20824709;28;20044;-76
2022/07/06 11:20:23;;;;;;;5.85;1.55;;;27.10;99.90;;;;;;20833131;28;20037;-75
2022/07/06 11:30:25;;;;;;;4.80;1.38;;;26.70;99.90;;;;;;20874516;23;20407;-76
2022/07/06 11:40:25;;;;;;;4.07;1.20;;;26.80;99.90;;;;;;20866347;28;20044;-76
2022/07/06 11:50:26;;;;;;;1.77;1.00;;;27.40;99.90;;;;;;20822977;28;20046;-75
2022/07/06 12:00:27;;;;;;;4.28;1.20;;;26.70;99.90;;;;;;20823745;28;20021;-76
2022/07/06 12:10:37;;;;;;;3.88;1.15;;;27.10;99.90;;;;;;20821856;28;20040;-75
2022/07/06 12:20:38;;;;;;;2.13;1.17;;;26.50;99.90;;;;;;20827530;28;20037;-75
2022/07/06 12:30:46;;;;;;;3.42;1.20;;;26.90;99.90;;;;;;20836560;28;20694;-75
2022/07/06 12:40:46;;;;;;;3.47;0.90;;;26.50;99.90;;;;;;20840417;28;20033;-75
2022/07/06 12:50:47;;;;;;;2.08;0.70;;;27.30;99.90;;;;;;20840049;28;20508;-75
2022/07/06 13:00:48;;;;;;;1.63;1.00;;;27.30;99.90;;;;;;20837219;28;20057;-75
2022/07/06 13:10:49;;;;;;;2.38;0.70;;;27.10;99.90;;;;;;20835256;28;20132;-75
2022/07/06 13:20:50;;;;;;;3.37;1.20;;;27.30;99.90;;;;;;20834076;28;20057;-75
2022/07/06 13:30:50;;;;;;;1.98;0.80;;;27.20;99.90;;;;;;20831980;28;20299;-75
2022/07/06 13:40:51;;;;;;;5.40;0.88;;;26.90;99.90;;;;;;20832561;28;20033;-75
2022/07/06 13:50:52;;;;;;;4.00;1.27;;;26.90;99.90;;;;;;20831704;28;20112;-75
2022/07/06 14:00:53;;;;;;;2.22;0.93;;;26.20;99.90;;;;;;20830630;28;20039;-75
2022/07/06 14:10:54;;;;;;;2.03;1.02;;;26.30;99.90;;;;;;20811337;28;20039;-75
2022/07/06 14:20:55;;;;;;;1.55;0.90;;;26.30;99.90;;;;;;20801568;28;20029;-75
2022/07/06 14:30:56;;;;;;;1.25;1.15;;;26.30;99.90;;;;;;20807720;28;20034;-76
2022/07/06 14:40:57;;;;;;;1.67;1.08;;;26.60;99.90;;;;;;20793935;28;20059;-76
2022/07/06 14:50:58;;;;;;;1.65;1.08;;;27.00;99.90;;;;;;20776316;28;20037;-76
2022/07/06 15:00:59;;;;;;;4.63;1.20;;;26.80;99.90;;;;;;20814480;28;20041;-75
2022/07/06 15:11:00;;;;;;;1.52;0.80;;;27.20;99.90;;;;;;20799449;28;20037;-75
2022/07/06 15:21:02;;;;;;;1.25;0.63;;;27.50;99.90;;;;;;20803005;28;20102;-75
2022/07/06 15:31:02;;;;;;;2.95;1.23;;;27.20;99.90;;;;;;20804890;28;20037;-75
2022/07/06 15:41:03;;;;;;;4.95;1.30;;;27.10;99.90;;;;;;20803101;28;20421;-75
2022/07/06 15:51:05;;;;;;;5.88;1.05;;;27.10;99.90;;;;;;20805624;28;20090;-75
2022/07/06 16:01:05;;;;;;;2.83;1.10;;;26.60;99.90;;;;;;20818575;28;20168;-75
2022/07/06 16:11:06;;;;;;;5.85;1.13;;;26.50;99.90;;;;;;20853070;28;20037;-75
2022/07/06 16:21:07;;;;;;;4.63;1.25;;;26.40;99.90;;;;;;20818740;28;20121;-75
2022/07/06 16:31:08;;;;;;;6.03;1.40;;;26.10;99.90;;;;;;20818178;28;20124;-75
2022/07/06 16:41:09;;;;;;;2.30;1.02;;;25.80;99.90;;;;;;20816384;28;20565;-75
2022/07/06 16:51:10;;;;;;;8.27;1.50;;;25.90;99.90;;;;;;20816895;28;20067;-75
2022/07/06 17:01:11;;;;;;;3.63;1.40;;;25.20;99.90;;;;;;20790351;28;20124;-75
2022/07/06 17:11:12;;;;;;;;;;;24.80;99.90;;;;;;20797540;28;20120;-75
2022/07/06 17:21:13;;;;;;;4.13;1.85;;;24.20;99.90;;;;;;20820130;28;20355;-75
2022/07/06 17:31:14;;;;;;;2.70;2.00;;;23.50;99.90;;;;;;20834098;28;20026;-76
2022/07/06 17:41:15;;;;;;;2.93;1.67;;;23.30;99.90;;;;;;20831514;28;20041;-75
2022/07/06 17:51:16;;;;;;;4.05;1.83;;;23.20;99.90;;;;;;20832166;28;20404;-75
2022/07/06 18:01:17;;;;;;;3.27;1.73;;;23.10;99.90;;;;;;20831231;28;20044;-75
2022/07/06 18:11:18;;;;;;;2.23;1.57;;;24.00;99.90;;;;;;20829918;28;20061;-77
2022/07/06 18:21:18;;;;;;;3.00;1.60;;;24.20;99.90;;;;;;20843716;28;20036;-77
2022/07/06 18:31:19;;;;;;;3.07;1.70;;;23.50;99.90;;;;;;20828283;28;20025;-77
2022/07/06 18:41:20;;;;;;;4.37;1.73;;;22.20;99.90;;;;;;20827759;28;20112;-77
2022/07/06 18:51:21;;;;;;;8.17;1.50;;;21.70;99.90;;;;;;20827064;28;20028;-77
2022/07/06 19:01:22;;;;;;;5.17;1.90;;;21.40;99.90;;;;;;20826401;28;20095;-77
2022/07/06 19:11:23;;;;;;;5.50;1.47;;;21.10;99.90;;;;;;20827990;28;20417;-76
2022/07/06 19:21:24;;;;;;;3.77;1.60;;;20.90;99.90;;;;;;20858791;28;20037;-77
2022/07/06 19:31:25;;;;;;;3.87;1.37;;;20.60;99.90;;;;;;20791727;28;20061;-77
2022/07/06 19:41:25;;;;;;;1.67;1.13;;;20.30;99.90;;;;;;20827588;28;20049;-77
2022/07/06 19:51:26;;;;;;;1.43;1.00;;;20.10;99.90;;;;;;20826498;28;20072;-76
2022/07/06 20:01:27;;;;;;;2.90;1.20;;;20.20;99.90;;;;;;20824560;28;20470;-76
2022/07/06 20:11:29;;;;;;;2.57;1.10;;;20.10;99.90;;;;;;20969503;23;20079;-81
2022/07/06 20:21:30;;;;;;;5.13;1.00;;;19.80;99.90;;;;;;20921045;28;20055;-83
2022/07/06 20:31:31;;;;;;;3.03;1.20;;;19.60;99.90;;;;;;20920520;28;20307;-82
2022/07/06 20:41:31;;;;;;;1.13;0.90;;;19.00;99.90;;;;;;20908429;28;20025;-83
2022/07/06 20:51:33;;;;;;;3.10;1.37;;;18.50;99.90;;;;;;20882472;28;20415;-83
2022/07/06 21:01:34;;;;;;;1.70;1.30;;;18.20;99.90;;;;;;20904792;28;20029;-84
2022/07/06 21:11:35;;;;;;;4.13;0.90;;;18.20;99.90;;;;;;20886820;28;20041;-83
2022/07/06 21:21:36;;;;;;;2.17;1.30;;;18.30;99.90;;;;;;20893364;28;20041;-84
2022/07/06 21:31:37;;;;;;;3.40;1.33;;;17.60;99.90;;;;;;20887040;28;20038;-83
2022/07/06 21:41:40;;;;;;;4.25;1.13;;;17.20;99.90;;;;;;20917903;28;20466;-83
2022/07/06 21:51:41;;;;;;;1.93;1.10;;;17.30;99.90;;;;;;20915091;28;20061;-83
2022/07/06 22:01:42;;;;;;;2.00;1.40;;;16.40;99.90;;;;;;20932729;28;20029;-84
2022/07/06 22:11:43;;;;;;;2.10;1.50;;;16.90;99.90;;;;;;20910391;28;20035;-81
2022/07/06 22:21:44;;;;;;;4.17;1.40;;;16.20;99.90;;;;;;20926075;28;20127;-84
2022/07/06 22:31:45;;;;;;;5.00;1.30;;;16.00;99.90;;;;;;20923705;28;20124;-83
2022/07/06 22:41:46;;;;;;;3.43;1.60;;;15.60;99.90;;;;;;20922749;28;20025;-83
2022/07/06 22:51:47;;;;;;;4.13;1.30;;;15.50;99.90;;;;;;20925792;28;20033;-85
2022/07/06 23:01:48;;;;;;;2.53;1.50;;;15.10;99.90;;;;;;20922889;28;20092;-82
2022/07/06 23:11:49;;;;;;;3.27;1.20;;;14.60;99.90;;;;;;20918186;28;20083;-84
2022/07/06 23:21:50;;;;;;;3.03;1.57;;;14.60;99.90;;;;;;20916674;28;20036;-82
2022/07/06 23:31:50;;;;;;;3.77;1.67;;;14.30;99.90;;;;;;20931001;28;20029;-83
2022/07/06 23:41:54;;;;;;;6.30;1.37;;;14.10;99.90;;;;;;20919868;28;20045;-81
2022/07/06 23:51:54;;;;;;;8.50;1.45;;;13.80;99.90;;;;;;20938811;28;20033;-80
